createdAt,value
2019-02-21T00:00:23.959Z,5.51
2019-02-21T00:01:15.991Z,5.47
2019-02-21T00:02:15.960Z,5.47
2019-02-21T00:03:15.925Z,5.50
2019-02-21T00:04:15.927Z,5.43
2019-02-21T00:05:15.859Z,5.38
2019-02-21T00:06:16.415Z,5.46
2019-02-21T00:07:16.423Z,5.38
2019-02-21T00:08:15.763Z,5.44
2019-02-21T00:09:15.751Z,5.43
2019-02-21T00:10:15.701Z,5.46
2019-02-21T00:11:15.666Z,5.53
2019-02-21T00:12:15.636Z,5.47
2019-02-21T00:13:15.603Z,5.54
2019-02-21T00:14:15.619Z,5.54
2019-02-21T00:15:15.545Z,5.59
2019-02-21T00:16:16.422Z,5.69
2019-02-21T00:17:16.417Z,5.69
2019-02-21T00:18:16.419Z,5.68
2019-02-21T00:19:15.451Z,5.72
2019-02-21T00:20:15.390Z,5.72
2019-02-21T00:21:15.384Z,5.68
2019-02-21T00:22:15.921Z,5.64
2019-02-21T00:23:15.313Z,5.69
2019-02-21T00:24:15.267Z,5.75
2019-02-21T00:25:15.238Z,5.65
2019-02-21T00:26:15.180Z,5.65
2019-02-21T00:27:15.143Z,5.76
2019-02-21T00:28:15.109Z,5.76
2019-02-21T00:29:15.170Z,5.79
2019-02-21T00:30:15.068Z,5.82
2019-02-21T00:31:15.015Z,5.82
2019-02-21T00:32:14.981Z,5.79
2019-02-21T00:33:14.950Z,5.84
2019-02-21T00:34:14.918Z,5.87
2019-02-21T00:35:15.826Z,5.83
2019-02-21T00:36:14.906Z,5.87
2019-02-21T00:37:14.818Z,5.99
2019-02-21T00:38:14.788Z,5.93
2019-02-21T00:39:14.771Z,5.94
2019-02-21T00:40:14.742Z,5.97
2019-02-21T00:41:15.437Z,5.98
2019-02-21T00:42:14.658Z,5.99
2019-02-21T00:43:15.500Z,5.99
2019-02-21T00:44:14.589Z,6.04
2019-02-21T00:45:14.601Z,6.01
2019-02-21T00:46:15.449Z,5.97
2019-02-21T00:47:14.496Z,6.04
2019-02-21T00:48:15.423Z,6.07
2019-02-21T00:49:14.430Z,6.11
2019-02-21T00:50:14.431Z,6.07
2019-02-21T00:51:14.939Z,6.08
2019-02-21T00:52:14.333Z,6.09
2019-02-21T00:53:14.303Z,6.07
2019-02-21T00:54:14.265Z,5.91
2019-02-21T00:55:14.237Z,6.11
2019-02-21T00:56:14.966Z,5.99
2019-02-21T00:57:14.186Z,6.08
2019-02-21T00:58:14.139Z,6.02
2019-02-21T00:59:14.107Z,6.11
2019-02-21T01:00:14.073Z,6.14
2019-02-21T01:01:14.063Z,6.14
2019-02-21T01:02:14.932Z,6.12
2019-02-21T01:03:13.973Z,6.19
2019-02-21T01:04:13.946Z,6.20
2019-02-21T01:05:13.937Z,6.30
2019-02-21T01:06:13.900Z,6.27
2019-02-21T01:07:13.853Z,6.30
2019-02-21T01:08:13.811Z,6.33
2019-02-21T01:09:13.779Z,6.35
2019-02-21T01:10:13.791Z,6.38
2019-02-21T01:11:13.750Z,6.44
2019-02-21T01:12:13.687Z,6.41
2019-02-21T01:13:13.655Z,6.33
2019-02-21T01:14:13.625Z,6.39
2019-02-21T01:15:13.591Z,6.45
2019-02-21T01:16:13.577Z,6.36
2019-02-21T01:17:13.530Z,6.36
2019-02-21T01:18:14.425Z,6.38
2019-02-21T01:19:13.461Z,6.39
2019-02-21T01:20:13.427Z,6.45
2019-02-21T01:21:13.422Z,6.42
2019-02-21T01:22:13.367Z,6.35
2019-02-21T01:23:13.329Z,6.48
2019-02-21T01:24:13.296Z,6.46
2019-02-21T01:25:13.265Z,6.51
2019-02-21T01:26:13.268Z,6.46
2019-02-21T01:27:13.205Z,6.52
2019-02-21T01:28:13.168Z,6.52
2019-02-21T01:29:13.143Z,6.52
2019-02-21T01:30:13.111Z,6.49
2019-02-21T01:31:13.262Z,6.69
2019-02-21T01:32:13.046Z,6.66
2019-02-21T01:33:13.011Z,6.67
2019-02-21T01:34:12.983Z,6.62
2019-02-21T01:35:12.948Z,6.60
2019-02-21T01:36:12.940Z,6.62
2019-02-21T01:37:12.884Z,6.57
2019-02-21T01:38:12.856Z,6.63
2019-02-21T01:39:12.827Z,6.69
2019-02-21T01:40:12.788Z,6.74
2019-02-21T01:41:12.782Z,6.66
2019-02-21T01:42:12.722Z,6.67
2019-02-21T01:43:13.431Z,6.72
2019-02-21T01:44:12.666Z,6.69
2019-02-21T01:45:12.621Z,6.77
2019-02-21T01:46:12.621Z,6.81
2019-02-21T01:47:12.565Z,6.77
2019-02-21T01:48:12.533Z,6.77
2019-02-21T01:49:13.433Z,6.77
2019-02-21T01:50:12.468Z,6.77
2019-02-21T01:51:12.453Z,6.75
2019-02-21T01:52:12.405Z,6.84
2019-02-21T01:53:14.836Z,6.70
2019-02-21T01:54:12.933Z,6.84
2019-02-21T01:55:12.312Z,6.79
2019-02-21T01:56:12.381Z,6.79
2019-02-21T01:57:12.836Z,6.81
2019-02-21T01:58:12.213Z,6.82
2019-02-21T01:59:12.315Z,6.92
2019-02-21T02:00:12.152Z,6.89
2019-02-21T02:01:12.114Z,6.89
2019-02-21T02:02:12.106Z,6.92
2019-02-21T02:03:12.132Z,6.88
2019-02-21T02:04:12.017Z,6.96
2019-02-21T02:05:12.015Z,6.93
2019-02-21T02:06:11.952Z,6.97
2019-02-21T02:07:11.949Z,6.89
2019-02-21T02:08:11.916Z,7.02
2019-02-21T02:09:11.860Z,7.03
2019-02-21T02:10:11.833Z,7.03
2019-02-21T02:11:11.797Z,6.96
2019-02-21T02:12:11.787Z,7.07
2019-02-21T02:13:23.678Z,7.10
2019-02-21T02:14:11.697Z,7.10
2019-02-21T02:15:12.442Z,7.05
2019-02-21T02:16:11.647Z,7.05
2019-02-21T02:17:11.642Z,7.06
2019-02-21T02:18:11.580Z,7.06
2019-02-21T02:19:11.542Z,7.06
2019-02-21T02:20:11.512Z,7.07
2019-02-21T02:21:11.474Z,7.02
2019-02-21T02:22:11.991Z,7.11
2019-02-21T02:23:11.996Z,7.14
2019-02-21T02:24:11.407Z,7.15
2019-02-21T02:25:11.350Z,7.14
2019-02-21T02:26:11.935Z,7.13
2019-02-21T02:27:11.308Z,7.11
2019-02-21T02:28:12.898Z,7.11
2019-02-21T02:29:11.222Z,7.15
2019-02-21T02:30:11.944Z,7.17
2019-02-21T02:31:21.965Z,7.18
2019-02-21T02:32:11.175Z,7.11
2019-02-21T02:33:11.939Z,7.21
2019-02-21T02:34:11.096Z,7.24
2019-02-21T02:35:11.036Z,7.29
2019-02-21T02:36:11.000Z,7.21
2019-02-21T02:37:10.995Z,7.24
2019-02-21T02:38:11.450Z,7.29
2019-02-21T02:39:10.908Z,7.29
2019-02-21T02:40:10.880Z,7.29
2019-02-21T02:41:10.899Z,7.33
2019-02-21T02:42:10.859Z,7.25
2019-02-21T02:43:10.787Z,7.24
2019-02-21T02:44:10.765Z,7.25
2019-02-21T02:45:10.744Z,7.29
2019-02-21T02:46:10.683Z,7.24
2019-02-21T02:47:10.680Z,7.25
2019-02-21T02:48:10.628Z,7.31
2019-02-21T02:49:10.595Z,7.24
2019-02-21T02:50:10.557Z,7.28
2019-02-21T02:51:10.526Z,7.24
2019-02-21T02:52:10.523Z,7.21
2019-02-21T02:53:10.463Z,7.24
2019-02-21T02:54:10.445Z,7.32
2019-02-21T02:55:10.419Z,7.23
2019-02-21T02:56:10.381Z,7.25
2019-02-21T02:57:10.478Z,7.32
2019-02-21T02:58:10.307Z,7.31
2019-02-21T02:59:10.281Z,7.25
2019-02-21T03:00:10.947Z,7.28
2019-02-21T03:01:10.213Z,7.25
2019-02-21T03:02:10.180Z,7.23
2019-02-21T03:03:10.173Z,7.23
2019-02-21T03:04:10.128Z,7.24
2019-02-21T03:05:10.081Z,7.28
2019-02-21T03:06:10.052Z,7.32
2019-02-21T03:07:10.023Z,7.25
2019-02-21T03:08:10.476Z,7.28
2019-02-21T03:09:10.946Z,7.24
2019-02-21T03:10:10.442Z,7.24
2019-02-21T03:11:09.889Z,7.23
2019-02-21T03:12:09.863Z,7.25
2019-02-21T03:13:09.873Z,7.24
2019-02-21T03:14:09.800Z,7.28
2019-02-21T03:15:09.774Z,7.24
2019-02-21T03:16:09.801Z,7.33
2019-02-21T03:17:09.710Z,7.28
2019-02-21T03:18:09.702Z,7.29
2019-02-21T03:19:09.672Z,7.31
2019-02-21T03:20:09.619Z,7.28
2019-02-21T03:21:09.582Z,7.25
2019-02-21T03:22:09.551Z,7.25
2019-02-21T03:23:09.580Z,7.29
2019-02-21T03:24:09.479Z,7.31
2019-02-21T03:25:09.453Z,7.33
2019-02-21T03:26:09.424Z,7.28
2019-02-21T03:27:09.950Z,7.36
2019-02-21T03:28:09.390Z,7.36
2019-02-21T03:29:09.453Z,7.24
2019-02-21T03:30:12.086Z,7.25
2019-02-21T03:31:09.947Z,7.32
2019-02-21T03:32:09.950Z,7.35
2019-02-21T03:33:09.251Z,7.23
2019-02-21T03:34:09.172Z,7.20
2019-02-21T03:35:09.133Z,7.32
2019-02-21T03:36:09.119Z,7.24
2019-02-21T03:37:09.971Z,7.32
2019-02-21T03:38:09.065Z,7.32
2019-02-21T03:39:09.007Z,7.32
2019-02-21T03:40:08.980Z,7.31
2019-02-21T03:41:08.940Z,7.28
2019-02-21T03:42:08.935Z,7.35
2019-02-21T03:43:08.909Z,7.32
2019-02-21T03:44:08.853Z,7.35
2019-02-21T03:45:08.816Z,7.31
2019-02-21T03:46:08.820Z,7.31
2019-02-21T03:47:08.911Z,7.35
2019-02-21T03:48:08.748Z,7.39
2019-02-21T03:49:08.701Z,7.38
2019-02-21T03:50:08.675Z,7.39
2019-02-21T03:51:08.634Z,7.39
2019-02-21T03:52:08.598Z,7.36
2019-02-21T03:53:08.587Z,7.47
2019-02-21T03:54:09.466Z,7.35
2019-02-21T03:55:08.505Z,7.47
2019-02-21T03:56:08.488Z,7.48
2019-02-21T03:57:08.441Z,7.38
2019-02-21T03:58:08.455Z,7.43
2019-02-21T03:59:08.375Z,7.43
2019-02-21T04:00:09.000Z,7.45
2019-02-21T04:01:08.314Z,7.40
2019-02-21T04:02:08.958Z,7.45
2019-02-21T04:03:08.282Z,7.42
2019-02-21T04:04:08.220Z,7.50
2019-02-21T04:05:10.859Z,7.45
2019-02-21T04:06:08.154Z,7.43
2019-02-21T04:07:08.123Z,7.35
2019-02-21T04:08:08.093Z,7.35
2019-02-21T04:09:08.084Z,7.47
2019-02-21T04:10:08.981Z,7.36
2019-02-21T04:11:07.998Z,7.47
2019-02-21T04:12:08.007Z,7.36
2019-02-21T04:13:08.001Z,7.48
2019-02-21T04:14:07.933Z,7.42
2019-02-21T04:15:08.465Z,7.39
2019-02-21T04:16:07.837Z,7.39
2019-02-21T04:17:07.813Z,7.39
2019-02-21T04:18:07.774Z,7.35
2019-02-21T04:19:07.777Z,7.36
2019-02-21T04:20:07.710Z,7.35
2019-02-21T04:21:08.467Z,7.32
2019-02-21T04:22:07.646Z,7.33
2019-02-21T04:23:07.621Z,7.38
2019-02-21T04:24:07.615Z,7.36
2019-02-21T04:25:07.561Z,7.24
2019-02-21T04:26:07.529Z,7.29
2019-02-21T04:27:07.503Z,7.31
2019-02-21T04:28:07.460Z,7.28
2019-02-21T04:29:07.452Z,7.20
2019-02-21T04:30:08.111Z,7.31
2019-02-21T04:31:07.363Z,7.24
2019-02-21T04:32:16.624Z,7.25
2019-02-21T04:33:07.304Z,7.21
2019-02-21T04:34:07.290Z,7.29
2019-02-21T04:35:07.344Z,7.29
2019-02-21T04:36:07.957Z,7.35
2019-02-21T04:37:07.197Z,7.28
2019-02-21T04:38:07.146Z,7.31
2019-02-21T04:39:07.157Z,7.29
2019-02-21T04:40:07.079Z,7.29
2019-02-21T04:41:07.956Z,7.23
2019-02-21T04:42:07.022Z,7.25
2019-02-21T04:43:07.958Z,7.31
2019-02-21T04:44:06.982Z,7.32
2019-02-21T04:45:06.926Z,7.24
2019-02-21T04:46:06.892Z,7.36
2019-02-21T04:47:06.864Z,7.36
2019-02-21T04:48:06.833Z,7.32
2019-02-21T04:49:07.130Z,7.31
2019-02-21T04:50:06.774Z,7.28
2019-02-21T04:51:07.465Z,7.31
2019-02-21T04:52:06.701Z,7.28
2019-02-21T04:53:06.685Z,7.23
2019-02-21T04:54:06.666Z,7.25
2019-02-21T04:55:06.609Z,7.24
2019-02-21T04:56:06.578Z,7.24
2019-02-21T04:57:06.557Z,7.24
2019-02-21T04:58:06.525Z,7.21
2019-02-21T04:59:06.820Z,7.24
2019-02-21T05:00:06.451Z,7.23
2019-02-21T05:01:06.422Z,7.24
2019-02-21T05:02:06.395Z,7.15
2019-02-21T05:03:06.361Z,7.20
2019-02-21T05:04:06.353Z,7.28
2019-02-21T05:05:06.981Z,7.21
2019-02-21T05:06:06.267Z,7.23
2019-02-21T05:07:06.233Z,7.18
2019-02-21T05:08:06.201Z,7.24
2019-02-21T05:09:07.501Z,7.24
2019-02-21T05:10:06.143Z,7.23
2019-02-21T05:11:06.865Z,7.28
2019-02-21T05:12:06.105Z,7.25
2019-02-21T05:13:06.965Z,7.24
2019-02-21T05:14:06.025Z,7.11
2019-02-21T05:15:06.026Z,7.25
2019-02-21T05:16:05.953Z,7.10
2019-02-21T05:17:05.919Z,7.13
2019-02-21T05:18:05.888Z,7.15
2019-02-21T05:19:05.857Z,7.15
2019-02-21T05:20:05.857Z,7.24
2019-02-21T05:21:05.789Z,7.17
2019-02-21T05:22:05.758Z,7.15
2019-02-21T05:23:05.728Z,7.17
2019-02-21T05:24:05.695Z,7.10
2019-02-21T05:25:05.690Z,7.11
2019-02-21T05:26:05.637Z,7.11
2019-02-21T05:27:05.600Z,7.15
2019-02-21T05:28:05.576Z,7.07
2019-02-21T05:29:06.470Z,7.07
2019-02-21T05:30:05.530Z,7.11
2019-02-21T05:31:05.483Z,7.06
2019-02-21T05:32:05.444Z,7.10
2019-02-21T05:33:05.415Z,7.05
2019-02-21T05:34:05.380Z,7.02
2019-02-21T05:35:05.517Z,7.07
2019-02-21T05:36:05.974Z,7.05
2019-02-21T05:37:05.289Z,7.02
2019-02-21T05:38:07.679Z,6.97
2019-02-21T05:39:05.230Z,6.96
2019-02-21T05:40:05.212Z,6.99
2019-02-21T05:41:05.159Z,6.93
2019-02-21T05:43:19.099Z,6.93
2019-02-21T05:44:19.114Z,7.00
2019-02-21T05:45:19.042Z,6.92
2019-02-21T05:46:18.939Z,6.95
2019-02-21T05:47:18.913Z,6.95
2019-02-21T05:48:19.692Z,6.89
2019-02-21T05:49:18.844Z,6.93
2019-02-21T05:50:19.280Z,6.95
2019-02-21T05:51:18.787Z,6.95
2019-02-21T05:52:18.749Z,6.92
2019-02-21T05:53:18.717Z,6.88
2019-02-21T05:54:19.690Z,6.87
2019-02-21T05:55:18.658Z,6.89
2019-02-21T05:56:18.661Z,6.92
2019-02-21T05:57:18.618Z,6.88
2019-02-21T05:58:19.175Z,6.95
2019-02-21T05:59:18.524Z,6.93
2019-02-21T06:00:18.498Z,6.96
2019-02-21T06:01:18.709Z,6.93
2019-02-21T06:02:18.430Z,6.93
2019-02-21T06:03:19.195Z,7.02
2019-02-21T06:04:19.426Z,6.95
2019-02-21T06:05:19.440Z,6.88
2019-02-21T06:06:18.335Z,6.96
2019-02-21T06:07:19.232Z,6.97
2019-02-21T06:08:18.285Z,6.93
2019-02-21T06:09:19.249Z,6.89
2019-02-21T06:10:18.182Z,6.89
2019-02-21T06:11:18.508Z,6.99
2019-02-21T06:12:18.117Z,6.97
2019-02-21T06:13:18.146Z,6.92
2019-02-21T06:14:18.069Z,6.93
2019-02-21T06:15:18.316Z,7.06
2019-02-21T06:16:17.991Z,6.92
2019-02-21T06:17:17.983Z,7.03
2019-02-21T06:18:17.938Z,6.95
2019-02-21T06:19:18.686Z,7.02
2019-02-21T06:20:18.061Z,6.99
2019-02-21T06:21:18.683Z,7.03
2019-02-21T06:22:17.823Z,7.07
2019-02-21T06:23:17.770Z,7.03
2019-02-21T06:24:18.683Z,7.05
2019-02-21T06:25:17.705Z,7.07
2019-02-21T06:26:17.676Z,7.07
2019-02-21T06:27:17.668Z,7.13
2019-02-21T06:28:17.611Z,7.10
2019-02-21T06:29:17.579Z,7.11
2019-02-21T06:30:17.553Z,7.10
2019-02-21T06:31:17.514Z,7.14
2019-02-21T06:32:17.553Z,7.07
2019-02-21T06:33:17.456Z,7.17
2019-02-21T06:34:17.421Z,7.14
2019-02-21T06:35:17.389Z,7.25
2019-02-21T06:36:20.183Z,7.24
2019-02-21T06:37:17.356Z,7.25
2019-02-21T06:38:17.294Z,7.24
2019-02-21T06:39:17.297Z,7.24
2019-02-21T06:40:17.233Z,7.35
2019-02-21T06:41:17.208Z,7.32
2019-02-21T06:42:17.216Z,7.33
2019-02-21T06:43:17.143Z,7.43
2019-02-21T06:44:17.108Z,7.45
2019-02-21T06:45:18.143Z,7.40
2019-02-21T06:46:17.040Z,7.53
2019-02-21T06:47:17.074Z,7.60
2019-02-21T06:48:16.981Z,7.56
2019-02-21T06:49:16.953Z,7.57
2019-02-21T06:50:26.358Z,7.66
2019-02-21T06:51:16.910Z,7.54
2019-02-21T06:52:16.896Z,7.69
2019-02-21T06:53:16.820Z,7.69
2019-02-21T06:54:17.604Z,7.77
2019-02-21T06:55:16.765Z,7.67
2019-02-21T06:56:16.730Z,7.75
2019-02-21T06:57:16.719Z,7.75
2019-02-21T06:58:16.668Z,7.79
2019-02-21T06:59:16.638Z,7.80
2019-02-21T07:00:16.607Z,7.82
2019-02-21T07:01:26.551Z,7.80
2019-02-21T07:02:16.575Z,7.75
2019-02-21T07:03:16.519Z,7.83
2019-02-21T07:04:16.501Z,7.79
2019-02-21T07:05:16.449Z,7.97
2019-02-21T07:06:16.421Z,7.93
2019-02-21T07:07:16.407Z,7.95
2019-02-21T07:08:16.718Z,8.05
2019-02-21T07:09:16.324Z,7.95
2019-02-21T07:10:17.186Z,7.95
2019-02-21T07:11:16.279Z,8.10
2019-02-21T07:12:16.235Z,8.08
2019-02-21T07:13:26.237Z,8.05
2019-02-21T07:14:16.169Z,8.05
2019-02-21T07:15:16.686Z,8.05
2019-02-21T07:16:16.690Z,8.00
2019-02-21T07:17:16.702Z,7.94
2019-02-21T07:18:16.071Z,8.05
2019-02-21T07:19:16.697Z,8.10
2019-02-21T07:20:15.987Z,8.16
2019-02-21T07:21:19.595Z,8.09
2019-02-21T07:22:18.097Z,8.12
2019-02-21T07:23:15.911Z,8.12
2019-02-21T07:24:18.088Z,8.19
2019-02-21T07:25:15.831Z,8.27
2019-02-21T07:26:15.798Z,8.31
2019-02-21T07:27:15.765Z,8.36
2019-02-21T07:28:16.287Z,8.30
2019-02-21T07:29:15.703Z,8.26
2019-02-21T07:30:19.998Z,8.41
2019-02-21T07:31:27.730Z,8.46
2019-02-21T07:32:15.652Z,8.45
2019-02-21T07:33:27.226Z,8.52
2019-02-21T07:34:15.558Z,8.45
2019-02-21T07:35:15.529Z,8.49
2019-02-21T07:36:15.493Z,8.45
2019-02-21T07:37:18.648Z,8.49
2019-02-21T07:38:17.209Z,8.41
2019-02-21T07:39:19.814Z,8.41
2019-02-21T07:40:20.058Z,8.37
2019-02-21T07:41:18.295Z,8.28
2019-02-21T07:42:15.301Z,8.33
2019-02-21T07:43:15.294Z,8.27
2019-02-21T07:44:15.246Z,8.15
2019-02-21T07:45:15.283Z,8.09
2019-02-21T07:46:15.181Z,8.09
2019-02-21T07:47:15.151Z,8.06
2019-02-21T07:48:15.142Z,8.10
2019-02-21T07:49:15.105Z,8.12
2019-02-21T07:50:15.697Z,8.12
2019-02-21T07:51:15.027Z,8.13
2019-02-21T07:52:14.991Z,8.09
2019-02-21T07:53:14.986Z,8.18
2019-02-21T07:54:14.933Z,8.18
2019-02-21T07:55:14.908Z,8.27
2019-02-21T07:56:14.873Z,8.28
2019-02-21T07:57:14.845Z,8.37
2019-02-21T07:58:14.811Z,8.28
2019-02-21T07:59:14.804Z,8.31
2019-02-21T08:00:14.755Z,8.30
2019-02-21T08:01:17.417Z,8.31
2019-02-21T08:02:14.696Z,8.19
2019-02-21T08:03:14.654Z,8.31
2019-02-21T08:04:14.701Z,8.37
2019-02-21T08:05:14.595Z,8.33
2019-02-21T08:06:14.564Z,8.36
2019-02-21T08:07:14.531Z,8.31
2019-02-21T08:08:14.503Z,8.36
2019-02-21T08:09:14.496Z,8.45
2019-02-21T08:10:14.444Z,8.41
2019-02-21T08:11:14.413Z,8.44
2019-02-21T08:12:14.389Z,8.44
2019-02-21T08:13:14.345Z,8.42
2019-02-21T08:14:16.135Z,8.41
2019-02-21T08:15:14.289Z,8.51
2019-02-21T08:16:14.265Z,8.52
2019-02-21T08:17:16.168Z,8.51
2019-02-21T08:18:14.199Z,8.48
2019-02-21T08:19:14.200Z,8.51
2019-02-21T08:20:14.400Z,8.48
2019-02-21T08:21:14.111Z,8.51
2019-02-21T08:22:14.068Z,8.55
2019-02-21T08:23:14.039Z,8.56
2019-02-21T08:24:14.031Z,8.60
2019-02-21T08:25:13.986Z,8.64
2019-02-21T08:26:13.948Z,8.61
2019-02-21T08:27:13.921Z,8.66
2019-02-21T08:28:13.914Z,8.71
2019-02-21T08:29:13.881Z,8.73
2019-02-21T08:30:13.829Z,8.73
2019-02-21T08:31:13.799Z,8.73
2019-02-21T08:32:13.836Z,8.82
2019-02-21T08:33:13.760Z,8.91
2019-02-21T08:34:13.730Z,8.89
2019-02-21T08:35:13.683Z,8.85
2019-02-21T08:36:13.649Z,8.89
2019-02-21T08:37:13.632Z,8.87
2019-02-21T08:38:13.686Z,8.87
2019-02-21T08:39:13.580Z,8.89
2019-02-21T08:40:13.520Z,8.92
2019-02-21T08:41:14.550Z,9.03
2019-02-21T08:42:13.460Z,8.97
2019-02-21T08:43:13.431Z,9.00
2019-02-21T08:44:13.430Z,8.92
2019-02-21T08:45:14.201Z,9.02
2019-02-21T08:46:13.518Z,9.00
2019-02-21T08:47:13.309Z,9.02
2019-02-21T08:48:13.585Z,8.95
2019-02-21T08:49:13.250Z,8.99
2019-02-21T08:50:13.739Z,9.00
2019-02-21T08:51:13.187Z,9.00
2019-02-21T08:52:13.159Z,8.91
2019-02-21T08:53:13.703Z,8.89
2019-02-21T08:54:13.099Z,8.89
2019-02-21T08:55:13.093Z,8.91
2019-02-21T08:56:13.112Z,8.89
2019-02-21T08:57:13.764Z,8.91
2019-02-21T08:58:13.045Z,8.81
2019-02-21T08:59:12.945Z,8.88
2019-02-21T09:00:13.253Z,8.89
2019-02-21T09:01:12.887Z,8.84
2019-02-21T09:02:12.858Z,8.82
2019-02-21T09:03:12.828Z,8.89
2019-02-21T09:04:26.425Z,8.85
2019-02-21T09:05:12.794Z,8.84
2019-02-21T09:06:12.743Z,8.71
2019-02-21T09:07:12.713Z,8.84
2019-02-21T09:08:12.677Z,8.87
2019-02-21T09:09:12.646Z,8.88
2019-02-21T09:10:12.647Z,8.85
2019-02-21T09:11:12.589Z,8.85
2019-02-21T09:12:12.560Z,8.85
2019-02-21T09:13:12.524Z,8.88
2019-02-21T09:14:12.512Z,8.87
2019-02-21T09:15:12.487Z,9.06
2019-02-21T09:16:12.437Z,8.99
2019-02-21T09:17:12.408Z,9.14
2019-02-21T09:18:12.378Z,9.11
2019-02-21T09:19:13.239Z,9.21
2019-02-21T09:20:12.338Z,9.23
2019-02-21T09:21:12.290Z,9.29
2019-02-21T09:22:13.243Z,9.34
2019-02-21T09:23:12.223Z,9.40
2019-02-21T09:24:13.814Z,9.46
2019-02-21T09:25:12.182Z,9.56
2019-02-21T09:26:12.164Z,9.59
2019-02-21T09:27:12.135Z,9.62
2019-02-21T09:28:12.079Z,9.62
2019-02-21T09:29:12.047Z,9.76
2019-02-21T09:30:12.048Z,9.76
2019-02-21T09:31:11.983Z,9.73
2019-02-21T09:32:11.958Z,9.74
2019-02-21T09:33:17.407Z,9.77
2019-02-21T09:34:20.863Z,9.84
2019-02-21T09:35:11.870Z,9.95
2019-02-21T09:36:11.861Z,9.95
2019-02-21T09:37:11.805Z,10.10
2019-02-21T09:38:11.776Z,10.04
2019-02-21T09:39:11.746Z,10.09
2019-02-21T09:40:11.716Z,9.98
2019-02-21T09:41:11.720Z,9.92
2019-02-21T09:42:11.661Z,9.91
2019-02-21T09:43:11.629Z,9.97
2019-02-21T09:44:11.601Z,9.95
2019-02-21T09:45:11.575Z,9.92
2019-02-21T09:46:11.562Z,9.86
2019-02-21T09:47:11.512Z,9.91
2019-02-21T09:48:12.097Z,9.92
2019-02-21T09:49:11.459Z,9.95
2019-02-21T09:50:12.212Z,9.97
2019-02-21T09:51:11.418Z,10.01
2019-02-21T09:52:12.217Z,10.13
2019-02-21T09:53:11.332Z,10.17
2019-02-21T09:54:11.336Z,10.26
2019-02-21T09:55:11.274Z,10.33
2019-02-21T09:56:11.271Z,10.37
2019-02-21T09:57:13.487Z,10.34
2019-02-21T09:58:11.190Z,10.28
2019-02-21T09:59:11.164Z,10.28
2019-02-21T10:00:11.139Z,10.28
2019-02-21T10:01:11.124Z,10.30
2019-02-21T10:02:11.071Z,10.19
2019-02-21T10:03:11.077Z,10.23
2019-02-21T10:04:11.015Z,10.19
2019-02-21T10:05:10.990Z,10.20
2019-02-21T10:06:10.978Z,10.19
2019-02-21T10:07:12.623Z,10.15
2019-02-21T10:08:10.897Z,10.02
2019-02-21T10:09:11.714Z,10.01
2019-02-21T10:10:10.841Z,10.02
2019-02-21T10:11:11.556Z,10.01
2019-02-21T10:12:15.623Z,10.02
2019-02-21T10:13:13.125Z,10.05
2019-02-21T10:14:10.719Z,10.04
2019-02-21T10:15:10.793Z,10.10
2019-02-21T10:16:10.688Z,10.15
2019-02-21T10:17:10.639Z,10.20
2019-02-21T10:18:10.606Z,10.26
2019-02-21T10:19:10.578Z,10.35
2019-02-21T10:20:10.554Z,10.44
2019-02-21T10:21:10.541Z,10.54
2019-02-21T10:22:10.489Z,10.48
2019-02-21T10:23:10.457Z,10.61
2019-02-21T10:24:10.426Z,10.67
2019-02-21T10:25:11.233Z,10.68
2019-02-21T10:26:10.418Z,10.63
2019-02-21T10:27:10.343Z,10.61
2019-02-21T10:28:11.218Z,10.63
2019-02-21T10:29:10.296Z,10.78
2019-02-21T10:30:10.255Z,10.76
2019-02-21T10:31:10.227Z,10.69
2019-02-21T10:32:10.223Z,10.72
2019-02-21T10:33:10.165Z,10.89
2019-02-21T10:34:10.138Z,10.81
2019-02-21T10:35:10.177Z,10.90
2019-02-21T10:36:10.080Z,10.97
2019-02-21T10:37:10.077Z,11.25
2019-02-21T10:38:10.026Z,11.32
2019-02-21T10:39:09.999Z,11.36
2019-02-21T10:40:09.983Z,11.35
2019-02-21T10:41:09.946Z,11.27
2019-02-21T10:42:09.936Z,11.29
2019-02-21T10:43:09.885Z,11.22
2019-02-21T10:44:09.852Z,11.26
2019-02-21T10:45:09.821Z,11.19
2019-02-21T10:46:10.633Z,11.29
2019-02-21T10:47:09.790Z,11.44
2019-02-21T10:48:09.739Z,11.47
2019-02-21T10:49:09.709Z,11.51
2019-02-21T10:50:09.691Z,11.37
2019-02-21T10:51:09.650Z,11.30
2019-02-21T10:52:09.647Z,11.30
2019-02-21T10:53:09.602Z,11.26
2019-02-21T10:54:09.576Z,11.08
2019-02-21T10:55:09.540Z,11.11
2019-02-21T10:56:10.226Z,11.07
2019-02-21T10:57:09.514Z,11.10
2019-02-21T10:58:09.452Z,11.11
2019-02-21T10:59:09.429Z,11.11
2019-02-21T11:00:09.404Z,11.14
2019-02-21T11:01:09.376Z,11.22
2019-02-21T11:02:09.380Z,11.22
2019-02-21T11:03:09.311Z,11.10
2019-02-21T11:04:10.133Z,10.96
2019-02-21T11:05:09.255Z,11.07
2019-02-21T11:06:09.221Z,11.04
2019-02-21T11:07:09.220Z,10.96
2019-02-21T11:08:09.167Z,11.04
2019-02-21T11:09:09.143Z,10.99
2019-02-21T11:10:09.109Z,11.11
2019-02-21T11:11:09.112Z,11.10
2019-02-21T11:12:09.088Z,11.05
2019-02-21T11:13:09.030Z,11.02
2019-02-21T11:14:08.998Z,11.11
2019-02-21T11:15:08.966Z,11.26
2019-02-21T11:16:09.737Z,11.27
2019-02-21T11:17:08.939Z,11.43
2019-02-21T11:18:08.879Z,11.55
2019-02-21T11:19:08.853Z,11.63
2019-02-21T11:20:08.831Z,11.66
2019-02-21T11:21:09.738Z,11.48
2019-02-21T11:22:08.767Z,11.44
2019-02-21T11:23:08.759Z,11.48
2019-02-21T11:24:08.707Z,11.47
2019-02-21T11:25:08.689Z,11.62
2019-02-21T11:26:08.648Z,11.69
2019-02-21T11:27:08.629Z,11.77
2019-02-21T11:28:08.639Z,11.70
2019-02-21T11:29:08.566Z,11.68
2019-02-21T11:30:08.535Z,11.47
2019-02-21T11:31:08.507Z,11.41
2019-02-21T11:32:08.481Z,11.29
2019-02-21T11:33:08.475Z,11.29
2019-02-21T11:34:08.421Z,11.29
2019-02-21T11:35:08.401Z,11.29
2019-02-21T11:36:08.368Z,11.15
2019-02-21T11:37:08.333Z,11.26
2019-02-21T11:38:08.326Z,11.27
2019-02-21T11:39:08.282Z,11.30
2019-02-21T11:40:08.260Z,11.15
2019-02-21T11:41:08.220Z,11.17
2019-02-21T11:42:08.189Z,11.27
2019-02-21T11:43:08.196Z,11.51
2019-02-21T11:44:08.131Z,11.57
2019-02-21T11:45:08.101Z,11.54
2019-02-21T11:46:08.084Z,11.47
2019-02-21T11:47:08.053Z,11.52
2019-02-21T11:48:09.256Z,11.48
2019-02-21T11:49:08.189Z,11.52
2019-02-21T11:50:07.960Z,11.68
2019-02-21T11:51:08.937Z,11.73
2019-02-21T11:52:10.445Z,11.66
2019-02-21T11:53:07.911Z,11.66
2019-02-21T11:54:07.847Z,11.72
2019-02-21T11:55:07.814Z,11.69
2019-02-21T11:56:07.788Z,11.66
2019-02-21T11:57:14.646Z,11.68
2019-02-21T11:58:07.779Z,11.62
2019-02-21T11:59:08.240Z,11.63
2019-02-21T12:00:07.685Z,11.73
2019-02-21T12:01:08.278Z,11.78
2019-02-21T12:02:08.243Z,11.83
2019-02-21T12:03:07.622Z,11.94
2019-02-21T12:04:07.567Z,11.90
2019-02-21T12:05:17.056Z,11.77
2019-02-21T12:06:07.498Z,11.84
2019-02-21T12:07:07.469Z,11.97
2019-02-21T12:08:07.445Z,11.90
2019-02-21T12:09:07.449Z,11.97
2019-02-21T12:10:07.385Z,12.10
2019-02-21T12:11:07.362Z,11.97
2019-02-21T12:12:07.353Z,11.87
2019-02-21T12:13:07.296Z,11.91
2019-02-21T12:14:07.297Z,12.00
2019-02-21T12:15:07.263Z,12.09
2019-02-21T12:16:07.217Z,12.09
2019-02-21T12:17:07.187Z,12.10
2019-02-21T12:18:07.157Z,12.10
2019-02-21T12:19:07.165Z,12.09
2019-02-21T12:20:07.101Z,12.10
2019-02-21T12:21:07.089Z,12.17
2019-02-21T12:22:07.044Z,12.17
2019-02-21T12:23:07.015Z,12.27
2019-02-21T12:24:07.013Z,12.31
2019-02-21T12:25:06.960Z,12.29
2019-02-21T12:26:06.931Z,12.25
2019-02-21T12:27:06.904Z,12.35
2019-02-21T12:28:07.760Z,12.25
2019-02-21T12:29:06.895Z,12.24
2019-02-21T12:30:06.829Z,12.39
2019-02-21T12:31:06.793Z,12.49
2019-02-21T12:32:06.765Z,12.57
2019-02-21T12:33:06.735Z,12.55
2019-02-21T12:34:06.733Z,12.72
2019-02-21T12:35:06.708Z,12.68
2019-02-21T12:36:06.678Z,12.79
2019-02-21T12:37:06.622Z,12.93
2019-02-21T12:38:06.597Z,12.97
2019-02-21T12:39:06.604Z,12.93
2019-02-21T12:40:06.546Z,12.82
2019-02-21T12:41:07.653Z,12.83
2019-02-21T12:42:06.493Z,12.70
2019-02-21T12:43:06.465Z,12.54
2019-02-21T12:44:06.461Z,12.46
2019-02-21T12:45:06.402Z,12.28
2019-02-21T12:46:07.247Z,12.25
2019-02-21T12:47:06.345Z,12.24
2019-02-21T12:48:06.332Z,12.17
2019-02-21T12:49:06.320Z,12.20
2019-02-21T12:50:06.263Z,12.13
2019-02-21T12:51:06.237Z,12.21
2019-02-21T12:52:06.749Z,12.10
2019-02-21T12:53:06.183Z,12.17
2019-02-21T12:54:06.184Z,12.10
2019-02-21T12:55:06.126Z,12.12
2019-02-21T12:56:06.100Z,12.09
2019-02-21T12:57:06.075Z,12.06
2019-02-21T12:58:06.039Z,11.99
2019-02-21T12:59:06.039Z,11.97
2019-02-21T13:00:06.010Z,11.91
2019-02-21T13:01:05.962Z,11.77
2019-02-21T13:02:05.931Z,11.75
2019-02-21T13:03:05.908Z,11.84
2019-02-21T13:04:05.880Z,11.83
2019-02-21T13:05:06.658Z,11.77
2019-02-21T13:06:05.813Z,11.75
2019-02-21T13:07:05.795Z,11.81
2019-02-21T13:08:05.763Z,11.81
2019-02-21T13:09:05.734Z,11.90
2019-02-21T13:10:05.728Z,11.81
2019-02-21T13:11:05.671Z,11.80
2019-02-21T13:12:05.664Z,11.78